Time;durP1;ratioP1;P1;durP2;ratioP2;P2;SDS_P1;SDS_P2;PMS_P1;PMS_P2;Temp;Humidity;BMP_temperature;BMP_pressure;BME280_temperature;BME280_humidity;BME280_pressure;Samples;Min_cycle;Max_cycle;Signal;HPM_P1;HPM_P2
2024/01/12 00:01:51;;;;;;;13.55;11.27;;;-4.50;97.70;;;;;;5047463;28;20209;-72
2024/01/12 00:04:18;;;;;;;21.80;12.63;;;-4.50;97.60;;;;;;5055585;28;20287;-72
2024/01/12 00:06:45;;;;;;;19.15;12.10;;;-4.40;97.60;;;;;;5055411;28;20210;-72
2024/01/12 00:09:14;;;;;;;15.00;9.35;;;-4.40;97.60;;;;;;5048154;28;20207;-72
2024/01/12 00:11:40;;;;;;;12.10;9.05;;;-4.60;97.60;;;;;;5047131;27;20624;-71
2024/01/12 00:14:07;;;;;;;16.02;11.23;;;-4.50;97.70;;;;;;5047157;28;20224;-72
2024/01/12 00:16:34;;;;;;;13.77;10.20;;;-4.60;97.60;;;;;;5043794;28;20243;-72
2024/01/12 00:19:01;;;;;;;19.05;9.50;;;-4.60;97.90;;;;;;5043237;28;20219;-72
2024/01/12 00:21:28;;;;;;;15.15;8.82;;;-4.70;97.90;;;;;;5044270;28;20200;-72
2024/01/12 00:23:54;;;;;;;10.70;9.70;;;-4.70;98.40;;;;;;5047554;28;20219;-72
2024/01/12 00:26:23;;;;;;;11.32;9.70;;;-4.60;98.70;;;;;;5047902;28;20214;-72
2024/01/12 00:28:49;;;;;;;15.90;11.07;;;-4.60;98.40;;;;;;5050759;27;20205;-72
2024/01/12 00:31:16;;;;;;;16.67;10.30;;;-4.80;98.40;;;;;;5044258;28;20675;-72
2024/01/12 00:33:43;;;;;;;17.48;12.65;;;-4.70;98.70;;;;;;5045265;28;20199;-72
2024/01/12 00:36:10;;;;;;;20.48;9.20;;;-4.70;98.40;;;;;;5035708;27;20205;-72
2024/01/12 00:38:37;;;;;;;22.70;16.50;;;-4.70;98.20;;;;;;5042283;28;20228;-72
2024/01/12 00:41:04;;;;;;;14.18;10.98;;;-4.80;98.40;;;;;;5044302;28;20210;-72
2024/01/12 00:43:32;;;;;;;14.05;9.50;;;-4.90;98.80;;;;;;5032020;28;20312;-72
2024/01/12 00:45:59;;;;;;;12.63;10.00;;;-4.90;99.20;;;;;;5046076;28;20209;-72
2024/01/12 00:48:26;;;;;;;17.40;11.75;;;-5.00;99.40;;;;;;5043811;28;20316;-72
2024/01/12 00:50:52;;;;;;;21.90;15.18;;;-4.80;99.80;;;;;;5057730;28;20206;-72
2024/01/12 00:53:19;;;;;;;27.13;13.23;;;-4.80;99.40;;;;;;5061211;28;20237;-72
2024/01/12 00:55:46;;;;;;;18.52;10.02;;;-4.70;99.20;;;;;;5052138;28;20680;-72
2024/01/12 00:58:13;;;;;;;13.50;10.57;;;-4.70;98.60;;;;;;5043753;28;20653;-72
2024/01/12 01:00:41;;;;;;;17.10;7.80;;;-4.70;98.20;;;;;;5054459;28;20718;-72
2024/01/12 01:03:08;;;;;;;14.88;10.40;;;-4.70;98.00;;;;;;5045363;28;20637;-72
2024/01/12 01:05:35;;;;;;;13.43;9.40;;;-4.80;97.80;;;;;;5052083;28;20303;-72
2024/01/12 01:08:02;;;;;;;18.15;12.73;;;-4.80;97.80;;;;;;5043001;28;20672;-72
2024/01/12 01:10:29;;;;;;;18.75;9.40;;;-4.80;97.60;;;;;;5049163;28;20741;-72
2024/01/12 01:12:56;;;;;;;17.00;11.75;;;-4.80;97.60;;;;;;5047019;28;20680;-72
2024/01/12 01:15:22;;;;;;;11.93;9.48;;;-4.80;97.40;;;;;;5049144;28;20282;-72
2024/01/12 01:17:51;;;;;;;26.90;11.48;;;-4.80;97.50;;;;;;5053116;27;20215;-71
2024/01/12 01:20:19;;;;;;;11.50;9.48;;;-4.80;97.60;;;;;;5053308;28;20239;-72
2024/01/12 01:22:46;;;;;;;14.23;10.10;;;-4.80;97.70;;;;;;5042111;27;20262;-72
2024/01/12 01:25:12;;;;;;;16.55;10.10;;;-4.80;97.60;;;;;;5041330;28;20201;-72
2024/01/12 01:27:39;;;;;;;18.63;12.55;;;-4.80;97.60;;;;;;5045222;28;20200;-72
2024/01/12 01:30:08;;;;;;;12.05;9.68;;;-4.80;97.50;;;;;;5046335;28;20201;-72
2024/01/12 01:32:35;;;;;;;12.25;10.15;;;-4.80;97.60;;;;;;5040693;28;20723;-72
2024/01/12 01:35:03;;;;;;;10.35;8.43;;;-4.80;97.80;;;;;;5048350;28;20664;-72
2024/01/12 01:37:30;;;;;;;15.20;9.63;;;-4.70;97.90;;;;;;5044810;28;20204;-72
2024/01/12 01:39:57;;;;;;;15.45;12.02;;;-4.80;97.60;;;;;;5039092;28;20231;-72
2024/01/12 01:42:23;;;;;;;13.13;8.65;;;-4.80;97.40;;;;;;5033407;28;20204;-72
2024/01/12 01:44:50;;;;;;;17.48;11.82;;;-4.70;97.40;;;;;;5033463;27;20734;-72
2024/01/12 01:47:17;;;;;;;12.88;9.55;;;-4.80;97.20;;;;;;5034316;28;20585;-72
2024/01/12 01:49:44;;;;;;;26.75;14.25;;;-4.80;97.10;;;;;;5055255;28;20300;-72
2024/01/12 01:52:14;;;;;;;17.67;10.93;;;-4.90;97.00;;;;;;5060105;28;20204;-72
2024/01/12 01:54:41;;;;;;;18.92;11.27;;;-5.00;97.20;;;;;;5054513;28;20603;-72
2024/01/12 01:57:08;;;;;;;17.27;10.63;;;-4.90;97.60;;;;;;5055252;28;20661;-72
2024/01/12 01:59:35;;;;;;;13.52;9.13;;;-4.90;97.50;;;;;;5041182;28;20221;-72
2024/01/12 02:02:03;;;;;;;13.75;9.60;;;-5.00;97.80;;;;;;5048444;28;21252;-72
2024/01/12 02:04:30;;;;;;;11.90;10.65;;;-5.10;98.30;;;;;;5047433;27;20284;-72
2024/01/12 02:06:57;;;;;;;13.02;10.95;;;-5.00;98.30;;;;;;5046894;28;20696;-72
2024/01/12 02:09:27;;;;;;;19.10;11.43;;;-5.00;98.40;;;;;;5048500;28;20196;-72
2024/01/12 02:11:54;;;;;;;11.00;9.85;;;-5.00;98.20;;;;;;5043367;28;20545;-72
2024/01/12 02:14:20;;;;;;;11.20;9.77;;;-5.00;98.00;;;;;;5044298;28;20216;-72
2024/01/12 02:16:48;;;;;;;15.27;8.98;;;-4.90;97.90;;;;;;5036923;28;20874;-72
2024/01/12 02:19:16;;;;;;;18.15;11.77;;;-4.90;98.20;;;;;;5050750;28;20625;-72
2024/01/12 02:21:45;;;;;;;13.35;9.45;;;-4.80;98.50;;;;;;5050304;28;20707;-72
2024/01/12 02:24:13;;;;;;;10.30;9.13;;;-4.80;98.20;;;;;;5042608;28;20204;-72
2024/01/12 02:26:41;;;;;;;13.25;9.82;;;-4.80;98.00;;;;;;5049683;28;20626;-72
2024/01/12 02:29:09;;;;;;;14.48;11.27;;;-4.80;97.80;;;;;;5047222;28;20201;-72
2024/01/12 02:31:35;;;;;;;18.42;11.98;;;-4.80;97.80;;;;;;5042354;28;20658;-72
2024/01/12 02:34:04;;;;;;;17.05;9.55;;;-4.80;97.60;;;;;;5044887;28;20204;-72
2024/01/12 02:36:31;;;;;;;31.83;10.98;;;-4.80;97.50;;;;;;5048625;28;20208;-72
2024/01/12 02:39:00;;;;;;;12.02;9.35;;;-4.80;97.30;;;;;;5046376;28;20587;-72
2024/01/12 02:41:27;;;;;;;11.70;9.27;;;-4.90;97.30;;;;;;5034299;28;20312;-72
2024/01/12 02:43:54;;;;;;;14.38;11.63;;;-4.90;97.20;;;;;;5043709;28;20204;-72
2024/01/12 02:46:24;;;;;;;15.13;10.65;;;-4.90;97.20;;;;;;5037657;28;20340;-72
2024/01/12 02:48:51;;;;;;;20.02;8.93;;;-4.90;97.20;;;;;;5049231;28;20673;-72
2024/01/12 02:51:19;;;;;;;14.60;11.60;;;-5.00;97.30;;;;;;5052485;28;20287;-72
2024/01/12 02:53:47;;;;;;;17.58;11.85;;;-5.00;97.20;;;;;;5064337;28;20208;-72
2024/01/12 02:56:16;;;;;;;12.93;9.50;;;-5.00;97.00;;;;;;5051383;28;20215;-72
2024/01/12 02:58:43;;;;;;;14.88;10.70;;;-5.00;97.00;;;;;;5055571;28;20201;-72
2024/01/12 03:01:11;;;;;;;16.17;11.50;;;-5.00;97.10;;;;;;5052804;28;20224;-72
2024/01/12 03:03:39;;;;;;;13.70;10.23;;;-5.00;97.00;;;;;;5059678;28;20208;-72
2024/01/12 03:06:07;;;;;;;16.10;10.30;;;-5.10;97.10;;;;;;5043769;28;20308;-72
2024/01/12 03:08:34;;;;;;;15.95;12.48;;;-5.10;97.00;;;;;;5046065;28;20200;-72
2024/01/12 03:11:03;;;;;;;20.17;9.65;;;-5.10;96.90;;;;;;5055948;28;20192;-72
2024/01/12 03:13:35;;;;;;;18.98;9.75;;;-5.10;96.70;;;;;;5056359;27;20215;-72
2024/01/12 03:16:03;;;;;;;14.13;8.18;;;-5.20;96.60;;;;;;5041824;28;20695;-72
2024/01/12 03:18:31;;;;;;;26.58;11.98;;;-5.20;96.80;;;;;;5051694;28;20200;-72
2024/01/12 03:20:59;;;;;;;16.33;10.85;;;-5.20;96.90;;;;;;5047464;28;20732;-72
2024/01/12 03:23:26;;;;;;;10.82;8.75;;;-5.20;96.90;;;;;;5044390;28;20283;-72
2024/01/12 03:25:52;;;;;;;14.52;6.80;;;-5.20;97.10;;;;;;5043681;28;20205;-73
2024/01/12 03:28:20;;;;;;;8.75;7.93;;;-5.30;97.40;;;;;;5050205;27;20590;-72
2024/01/12 03:30:48;;;;;;;14.38;9.35;;;-5.20;97.60;;;;;;5050070;28;20205;-71
2024/01/12 03:33:16;;;;;;;15.18;9.15;;;-5.20;97.40;;;;;;5049533;28;20204;-72
2024/01/12 03:35:43;;;;;;;11.70;7.85;;;-5.20;97.30;;;;;;5043606;28;20299;-72
2024/01/12 03:38:12;;;;;;;9.80;8.75;;;-5.20;97.20;;;;;;5049601;28;20829;-72
2024/01/12 03:40:40;;;;;;;11.93;10.52;;;-5.20;97.10;;;;;;5045069;28;20264;-72
2024/01/12 03:43:08;;;;;;;15.75;8.55;;;-5.30;96.80;;;;;;5041623;28;20710;-73
2024/01/12 03:45:36;;;;;;;9.80;8.75;;;-5.30;96.70;;;;;;5048695;28;20223;-72
2024/01/12 03:48:06;;;;;;;12.30;10.07;;;-5.30;96.70;;;;;;5043566;28;20211;-72
2024/01/12 03:50:34;;;;;;;13.32;8.30;;;-5.30;96.80;;;;;;5046677;28;20217;-73
2024/01/12 03:53:01;;;;;;;15.38;9.70;;;-5.30;96.90;;;;;;5062535;28;20221;-72
2024/01/12 03:55:28;;;;;;;12.48;8.02;;;-5.40;96.80;;;;;;5053516;28;20256;-72
2024/01/12 03:57:55;;;;;;;10.90;9.00;;;-5.40;96.80;;;;;;5050157;28;20211;-72
2024/01/12 04:00:22;;;;;;;9.70;8.15;;;-5.40;97.10;;;;;;5053202;28;20231;-72
2024/01/12 04:02:49;;;;;;;23.17;9.75;;;-5.40;97.40;;;;;;5058724;28;20209;-72
2024/01/12 04:05:17;;;;;;;12.38;11.25;;;-5.40;97.40;;;;;;5075091;27;20207;-72
2024/01/12 04:07:44;;;;;;;16.20;11.85;;;-5.40;97.30;;;;;;5082566;27;20231;-72
2024/01/12 04:10:11;;;;;;;13.85;8.88;;;-5.30;97.30;;;;;;5072009;27;20200;-72
2024/01/12 04:12:39;;;;;;;16.63;11.73;;;-5.30;97.60;;;;;;5065811;27;20201;-72
2024/01/12 04:15:08;;;;;;;13.77;10.25;;;-5.40;97.60;;;;;;5074318;27;20208;-72
2024/01/12 04:17:34;;;;;;;12.05;8.65;;;-5.40;97.60;;;;;;5064957;27;20208;-72
2024/01/12 04:20:01;;;;;;;20.33;13.40;;;-5.30;97.50;;;;;;5062545;27;20224;-72
2024/01/12 04:22:29;;;;;;;11.63;8.52;;;-5.20;97.30;;;;;;5056377;28;20295;-73
2024/01/12 04:24:56;;;;;;;22.20;10.35;;;-5.30;97.20;;;;;;5062460;28;20623;-72
2024/01/12 04:27:25;;;;;;;9.18;8.00;;;-5.30;97.50;;;;;;5043333;28;20569;-72
2024/01/12 04:29:51;;;;;;;12.63;8.95;;;-5.40;97.80;;;;;;5040256;28;20197;-72
2024/01/12 04:32:18;;;;;;;14.43;10.40;;;-5.30;98.10;;;;;;5042617;28;20212;-72
2024/01/12 04:34:45;;;;;;;10.75;8.00;;;-5.40;98.30;;;;;;5047714;28;20216;-72
2024/01/12 04:37:12;;;;;;;16.17;10.18;;;-5.20;98.50;;;;;;5048679;28;20211;-72
2024/01/12 04:39:42;;;;;;;12.15;8.50;;;-5.20;98.30;;;;;;5058258;27;20212;-72
2024/01/12 04:42:08;;;;;;;10.43;8.15;;;-5.30;98.20;;;;;;5046306;28;20209;-72
2024/01/12 04:44:35;;;;;;;9.23;8.32;;;-5.30;97.90;;;;;;5055462;28;20208;-72
2024/01/12 04:47:03;;;;;;;22.67;10.52;;;-5.50;97.90;;;;;;5046600;28;20309;-72
2024/01/12 04:49:30;;;;;;;14.25;10.38;;;-5.50;98.20;;;;;;5058691;27;20228;-72
2024/01/12 04:51:56;;;;;;;11.40;9.05;;;-5.60;98.40;;;;;;5048346;27;20223;-72
2024/01/12 04:54:23;;;;;;;20.55;10.75;;;-5.60;98.80;;;;;;5045087;28;20213;-72
2024/01/12 04:56:51;;;;;;;17.42;8.95;;;-5.70;98.60;;;;;;5044908;27;20196;-72
2024/01/12 04:59:18;;;;;;;9.40;7.90;;;-5.70;98.60;;;;;;5036856;28;20231;-72
2024/01/12 05:01:45;;;;;;;11.63;9.48;;;-5.60;98.50;;;;;;5046523;28;20299;-72
2024/01/12 05:04:12;;;;;;;17.35;9.82;;;-5.60;98.00;;;;;;5035036;28;20713;-72
2024/01/12 05:06:39;;;;;;;16.10;10.05;;;-5.60;97.60;;;;;;5044922;28;20211;-72
2024/01/12 05:09:07;;;;;;;12.88;9.18;;;-5.60;97.60;;;;;;5036044;28;20200;-73
2024/01/12 05:11:33;;;;;;;11.98;10.95;;;-5.60;97.60;;;;;;5043002;28;20617;-72
2024/01/12 05:14:02;;;;;;;10.15;7.93;;;-5.70;97.40;;;;;;5037031;28;20202;-72
2024/01/12 05:16:29;;;;;;;24.52;11.20;;;-5.70;97.30;;;;;;5055345;28;20732;-72
2024/01/12 05:18:55;;;;;;;9.18;6.75;;;-5.70;97.40;;;;;;5053653;28;20553;-72
2024/01/12 05:21:22;;;;;;;15.55;9.68;;;-5.90;97.30;;;;;;5045998;27;20227;-72
2024/01/12 05:23:49;;;;;;;9.57;8.70;;;-5.90;97.80;;;;;;5047749;28;20202;-72
2024/01/12 05:26:16;;;;;;;20.95;9.07;;;-5.70;98.00;;;;;;5057790;28;20287;-72
2024/01/12 05:28:43;;;;;;;16.98;12.05;;;-5.90;97.80;;;;;;5053454;28;20206;-72
2024/01/12 05:31:11;;;;;;;9.48;8.00;;;-6.00;98.20;;;;;;5042344;28;20208;-72
2024/01/12 05:33:38;;;;;;;16.92;10.88;;;-6.00;98.50;;;;;;5057689;28;20207;-72
2024/01/12 05:36:05;;;;;;;14.50;10.15;;;-6.00;98.70;;;;;;5054582;28;20204;-71
2024/01/12 05:38:32;;;;;;;11.43;6.68;;;-6.10;98.90;;;;;;5049961;28;20694;-71
2024/01/12 05:40:59;;;;;;;9.32;8.43;;;-6.10;99.20;;;;;;5048840;28;20637;-71
2024/01/12 05:43:26;;;;;;;10.82;10.02;;;-6.10;99.50;;;;;;5043707;27;20228;-71
2024/01/12 05:45:53;;;;;;;13.63;9.90;;;-6.10;99.80;;;;;;5042455;28;20196;-71
2024/01/12 05:48:21;;;;;;;23.42;10.45;;;-6.00;99.90;;;;;;5046476;28;20584;-70
2024/01/12 05:50:48;;;;;;;10.45;8.65;;;-5.90;99.90;;;;;;5062621;27;20196;-71
2024/01/12 05:53:14;;;;;;;13.48;11.55;;;-5.80;99.90;;;;;;5052030;27;20214;-71
2024/01/12 05:55:41;;;;;;;11.80;10.68;;;-5.80;99.60;;;;;;5037545;28;20247;-71
2024/01/12 05:58:08;;;;;;;8.15;7.05;;;-5.90;99.40;;;;;;5035659;28;20940;-71
2024/01/12 06:00:35;;;;;;;12.88;8.27;;;-5.90;99.70;;;;;;5044553;28;20229;-70
2024/01/12 06:03:01;;;;;;;15.27;11.07;;;-5.90;99.40;;;;;;5037479;28;20229;-71
2024/01/12 06:05:29;;;;;;;14.80;8.10;;;-5.80;99.00;;;;;;5037526;28;20213;-72
2024/01/12 06:07:56;;;;;;;15.27;7.22;;;-5.80;98.30;;;;;;5026023;28;20210;-73
2024/01/12 06:10:23;;;;;;;14.07;7.72;;;-5.90;97.90;;;;;;5088230;27;20738;-72
2024/01/12 06:12:50;;;;;;;9.82;8.45;;;-5.90;97.80;;;;;;5041578;28;20631;-73
2024/01/12 06:15:17;;;;;;;10.38;7.78;;;-5.80;97.60;;;;;;5050804;28;20561;-70
2024/01/12 06:17:43;;;;;;;20.80;14.07;;;-5.80;97.40;;;;;;5060487;28;20670;-70
2024/01/12 06:20:11;;;;;;;10.15;9.15;;;-5.70;97.30;;;;;;5055124;28;20627;-70
2024/01/12 06:22:40;;;;;;;23.92;9.90;;;-5.70;97.00;;;;;;5052994;28;20212;-72
2024/01/12 06:25:07;;;;;;;7.00;6.53;;;-5.70;96.80;;;;;;5063304;28;20652;-72
2024/01/12 06:27:34;;;;;;;20.25;10.20;;;-5.80;96.60;;;;;;5051094;28;20561;-72
2024/01/12 06:30:01;;;;;;;11.57;7.13;;;-5.90;96.50;;;;;;5045465;28;20658;-72
2024/01/12 06:32:28;;;;;;;10.15;9.30;;;-5.90;96.30;;;;;;5046038;28;20293;-74
2024/01/12 06:34:54;;;;;;;10.77;9.38;;;-5.90;96.30;;;;;;5049747;28;20202;-73
2024/01/12 06:37:21;;;;;;;15.35;9.18;;;-5.90;96.60;;;;;;5052813;27;20686;-73
2024/01/12 06:39:50;;;;;;;20.05;11.60;;;-6.00;96.60;;;;;;5042174;28;20209;-73
2024/01/12 06:42:17;;;;;;;16.00;8.70;;;-6.00;96.60;;;;;;5072518;27;20254;-72
2024/01/12 06:44:44;;;;;;;12.02;10.80;;;-5.90;96.60;;;;;;5069218;27;20209;-72
2024/01/12 06:47:11;;;;;;;23.20;7.97;;;-6.00;96.60;;;;;;5047778;27;20227;-72
2024/01/12 06:49:42;;;;;;;11.93;10.80;;;-6.00;96.70;;;;;;5061262;27;20205;-71
2024/01/12 06:52:09;;;;;;;13.75;11.15;;;-5.90;97.00;;;;;;5047438;28;20655;-72
2024/01/12 06:54:35;;;;;;;12.48;11.15;;;-5.90;97.20;;;;;;5051956;28;20586;-72
2024/01/12 06:57:04;;;;;;;7.55;6.85;;;-5.90;97.30;;;;;;5049213;28;20220;-72
2024/01/12 06:59:31;;;;;;;14.25;8.93;;;-5.90;97.60;;;;;;5049801;27;20220;-72
2024/01/12 07:01:57;;;;;;;11.02;9.18;;;-6.00;97.40;;;;;;5040418;28;20221;-72
2024/01/12 07:04:24;;;;;;;12.73;10.35;;;-5.90;97.80;;;;;;5041691;28;20209;-72
2024/01/12 07:06:51;;;;;;;15.98;12.52;;;-6.00;97.70;;;;;;5049636;28;20530;-72
2024/01/12 07:09:18;;;;;;;12.23;11.05;;;-5.90;97.80;;;;;;5042131;28;20205;-72
2024/01/12 07:11:46;;;;;;;11.57;9.57;;;-5.90;97.70;;;;;;5048938;27;20222;-72
2024/01/12 07:14:14;;;;;;;18.38;9.82;;;-5.80;97.70;;;;;;5054143;28;20621;-72
2024/01/12 07:16:41;;;;;;;19.00;13.05;;;-5.80;97.50;;;;;;5040900;28;20201;-72
2024/01/12 07:19:08;;;;;;;18.02;10.10;;;-5.80;97.40;;;;;;5055545;28;20295;-72
2024/01/12 07:21:35;;;;;;;22.45;13.63;;;-5.80;97.40;;;;;;5053693;28;20311;-72
2024/01/12 07:24:02;;;;;;;14.98;8.63;;;-5.70;97.30;;;;;;5059366;27;20688;-72
2024/01/12 07:26:29;;;;;;;14.27;10.20;;;-5.80;97.20;;;;;;5042421;28;20308;-72
2024/01/12 07:28:57;;;;;;;10.18;9.25;;;-5.80;97.30;;;;;;5051781;28;20555;-72
2024/01/12 07:31:26;;;;;;;20.25;11.93;;;-5.80;97.10;;;;;;5049507;27;20204;-72
2024/01/12 07:33:52;;;;;;;11.68;9.57;;;-5.80;97.20;;;;;;5040001;28;20292;-72
2024/01/12 07:36:19;;;;;;;12.40;10.75;;;-5.80;96.80;;;;;;5044199;28;20208;-72
2024/01/12 07:38:46;;;;;;;14.80;10.07;;;-5.70;96.80;;;;;;5047316;28;20720;-73
2024/01/12 07:41:13;;;;;;;17.95;13.00;;;-5.70;96.60;;;;;;5045591;27;20342;-72
2024/01/12 07:43:40;;;;;;;16.02;7.60;;;-5.70;96.60;;;;;;5052703;27;20631;-72
2024/01/12 07:46:07;;;;;;;16.35;11.85;;;-5.70;96.50;;;;;;5043356;28;20288;-72
2024/01/12 07:48:35;;;;;;;13.63;11.75;;;-5.70;96.50;;;;;;5051212;28;20307;-72
2024/01/12 07:51:02;;;;;;;18.80;10.40;;;-5.70;96.60;;;;;;5046639;28;20503;-72
2024/01/12 07:53:29;;;;;;;15.07;13.57;;;-5.50;97.40;;;;;;5043099;28;20203;-72
2024/01/12 07:55:56;;;;;;;14.27;10.93;;;-5.50;97.10;;;;;;5044942;28;20303;-72
2024/01/12 07:58:23;;;;;;;12.00;9.88;;;-5.50;97.00;;;;;;5053297;27;20200;-72
2024/01/12 08:00:50;;;;;;;11.80;9.15;;;-5.50;97.10;;;;;;5039372;28;20200;-72
2024/01/12 08:03:17;;;;;;;12.07;10.20;;;-5.40;97.30;;;;;;5051057;28;20208;-72
2024/01/12 08:05:45;;;;;;;19.77;10.35;;;-5.40;97.30;;;;;;5048772;27;20204;-72
2024/01/12 08:08:12;;;;;;;15.40;10.38;;;-5.30;97.20;;;;;;5046047;28;20204;-71
2024/01/12 08:10:39;;;;;;;11.68;10.10;;;-5.30;97.10;;;;;;5044382;27;20204;-72
2024/01/12 08:13:06;;;;;;;11.43;9.55;;;-5.30;97.20;;;;;;5034746;28;20209;-72
2024/01/12 08:15:33;;;;;;;17.77;14.30;;;-5.20;97.30;;;;;;5039967;28;20205;-72
2024/01/12 08:18:00;;;;;;;14.07;11.27;;;-5.20;97.30;;;;;;5038829;28;20204;-72
2024/01/12 08:20:27;;;;;;;18.33;11.95;;;-5.20;97.40;;;;;;5047117;28;20201;-73
2024/01/12 08:22:55;;;;;;;10.43;7.70;;;-5.10;97.50;;;;;;5051556;28;20258;-72
2024/01/12 08:25:23;;;;;;;14.60;10.27;;;-5.10;97.60;;;;;;5045688;28;20547;-72
2024/01/12 08:27:50;;;;;;;15.10;10.70;;;-5.10;98.20;;;;;;5056601;27;20656;-72
2024/01/12 08:30:17;;;;;;;17.77;11.02;;;-5.00;98.40;;;;;;5052734;28;20582;-72
2024/01/12 08:32:44;;;;;;;13.32;10.50;;;-4.90;98.20;;;;;;5043349;28;20201;-72
2024/01/12 08:35:10;;;;;;;12.95;11.30;;;-4.80;98.10;;;;;;5053070;27;20197;-72
2024/01/12 08:37:37;;;;;;;8.90;7.78;;;-4.60;98.30;;;;;;5045206;28;20552;-72
2024/01/12 08:40:07;;;;;;;21.55;14.82;;;-4.40;98.10;;;;;;5039013;28;20201;-72
2024/01/12 08:42:34;;;;;;;15.93;11.93;;;-4.50;98.10;;;;;;5041137;28;20222;-72
2024/01/12 08:45:01;;;;;;;15.98;13.05;;;-4.50;98.10;;;;;;5054433;28;20283;-73
2024/01/12 08:47:29;;;;;;;16.85;15.05;;;-4.50;98.40;;;;;;5044666;28;20210;-73
2024/01/12 08:49:58;;;;;;;11.90;10.43;;;-4.40;98.70;;;;;;5069177;27;20564;-72
2024/01/12 08:52:24;;;;;;;14.93;11.98;;;-4.40;99.10;;;;;;5054024;28;20208;-71
2024/01/12 08:54:51;;;;;;;13.07;12.00;;;-4.20;99.30;;;;;;5039359;28;20299;-72
2024/01/12 08:57:19;;;;;;;16.73;11.18;;;-4.20;99.50;;;;;;5045655;28;20217;-72
2024/01/12 08:59:46;;;;;;;30.48;13.35;;;-4.10;99.70;;;;;;5041431;27;20210;-72
2024/01/12 09:02:13;;;;;;;15.45;12.38;;;-3.90;99.80;;;;;;5043138;28;20231;-72
2024/01/12 09:04:40;;;;;;;22.67;13.95;;;-3.90;99.40;;;;;;5043697;28;20211;-72
2024/01/12 09:07:07;;;;;;;15.05;10.88;;;-4.00;99.10;;;;;;5045398;28;20703;-72
2024/01/12 09:09:34;;;;;;;13.38;11.82;;;-4.10;99.20;;;;;;5037850;28;20288;-72
2024/01/12 09:12:00;;;;;;;18.48;12.07;;;-4.20;99.50;;;;;;5037257;27;20673;-72
2024/01/12 09:14:29;;;;;;;18.15;12.65;;;-4.10;99.80;;;;;;5028698;28;20579;-72
2024/01/12 09:16:55;;;;;;;22.73;13.30;;;-4.00;99.90;;;;;;5059309;27;20200;-72
2024/01/12 09:19:22;;;;;;;25.92;15.00;;;-4.00;99.80;;;;;;5044731;28;20293;-72
2024/01/12 09:21:49;;;;;;;17.73;12.48;;;-3.80;99.80;;;;;;5040462;28;20666;-72
2024/01/12 09:24:16;;;;;;;18.02;15.07;;;-3.70;99.50;;;;;;5053179;28;20683;-72
2024/01/12 09:26:42;;;;;;;16.00;14.48;;;-3.70;99.50;;;;;;5042065;28;20537;-72
2024/01/12 09:29:09;;;;;;;31.95;17.80;;;-3.60;99.60;;;;;;5045880;28;20208;-72
2024/01/12 09:31:38;;;;;;;17.30;14.73;;;-3.60;99.40;;;;;;5046586;28;20232;-72
2024/01/12 09:34:05;;;;;;;15.88;13.88;;;-3.50;99.30;;;;;;5043928;28;20245;-72
2024/01/12 09:36:32;;;;;;;24.88;15.57;;;-3.50;99.10;;;;;;5047066;28;20244;-72
2024/01/12 09:38:58;;;;;;;26.30;16.80;;;-3.60;99.00;;;;;;5040090;28;20566;-72
2024/01/12 09:41:31;;;;;;;20.23;14.68;;;-3.80;99.10;;;;;;5051940;28;20238;-72
2024/01/12 09:44:00;;;;;;;18.33;13.15;;;-3.70;99.40;;;;;;5051296;27;20606;-72
2024/01/12 09:46:30;;;;;;;24.75;14.48;;;-3.70;99.50;;;;;;5052725;28;20214;-72
2024/01/12 09:48:59;;;;;;;19.83;13.95;;;-3.70;99.40;;;;;;5051822;28;20217;-72
2024/01/12 09:51:28;;;;;;;18.45;14.38;;;-3.80;99.40;;;;;;5065169;27;20292;-72
2024/01/12 09:53:55;;;;;;;17.65;15.82;;;-3.60;99.60;;;;;;5052396;28;20208;-72
2024/01/12 09:56:23;;;;;;;20.80;16.20;;;-3.80;99.20;;;;;;5054860;28;20224;-72
2024/01/12 09:58:50;;;;;;;36.78;23.42;;;-3.70;99.30;;;;;;5050270;27;21084;-72
2024/01/12 10:01:17;;;;;;;22.80;16.35;;;-3.70;99.50;;;;;;5049095;27;20208;-72
2024/01/12 10:03:47;;;;;;;29.33;18.98;;;-3.60;99.60;;;;;;5045901;28;20655;-72
2024/01/12 10:06:15;;;;;;;24.40;18.85;;;-3.50;99.60;;;;;;5047224;28;20282;-72
2024/01/12 10:08:42;;;;;;;28.58;17.73;;;-3.50;99.30;;;;;;5047423;28;20215;-72
2024/01/12 10:11:09;;;;;;;20.80;16.17;;;-3.60;99.50;;;;;;5049823;28;20325;-72
2024/01/12 10:13:36;;;;;;;24.45;18.58;;;-3.60;99.50;;;;;;5050174;28;20672;-72
2024/01/12 10:16:03;;;;;;;23.98;14.15;;;-3.60;99.60;;;;;;5051360;28;20212;-72
2024/01/12 10:18:30;;;;;;;30.67;18.70;;;-3.40;99.60;;;;;;5067930;27;20208;-72
2024/01/12 10:20:57;;;;;;;20.80;15.27;;;-3.50;99.40;;;;;;5064983;28;20712;-72
2024/01/12 10:23:26;;;;;;;23.98;17.15;;;-3.50;99.50;;;;;;5067167;27;20231;-72
2024/01/12 10:26:00;;;;;;;16.40;13.80;;;-3.50;99.70;;;;;;5047031;27;20204;-72
2024/01/12 10:28:28;;;;;;;21.88;14.95;;;-3.40;99.90;;;;;;5057358;28;20214;-72
2024/01/12 10:30:55;;;;;;;16.08;13.82;;;-3.40;99.90;;;;;;5061323;28;20532;-72
2024/01/12 10:33:23;;;;;;;28.73;15.95;;;-3.50;99.90;;;;;;5064302;28;20200;-73
2024/01/12 10:36:06;;;;;;;33.55;15.05;;;-3.40;99.90;;;;;;5061030;27;20290;-72
2024/01/12 10:38:36;;;;;;;28.52;15.93;;;-3.30;99.90;;;;;;5055640;28;20294;-72
2024/01/12 10:41:06;;;;;;;29.35;15.65;;;-3.20;99.90;;;;;;5053120;28;20654;-72
2024/01/12 10:43:37;;;;;;;22.95;14.73;;;-3.20;99.90;;;;;;5061148;28;20226;-72
2024/01/12 10:46:10;;;;;;;34.65;16.02;;;-3.20;99.90;;;;;;5057281;28;20274;-71
2024/01/12 10:48:45;;;;;;;21.85;15.45;;;-3.30;99.80;;;;;;5058403;28;20652;-72
2024/01/12 10:51:14;;;;;;;31.92;15.60;;;-3.30;99.90;;;;;;5060912;27;20214;-71
2024/01/12 10:53:51;;;;;;;21.17;15.00;;;-3.20;99.90;;;;;;5039258;28;20274;-72
2024/01/12 10:56:18;;;;;;;25.15;14.88;;;-3.10;99.90;;;;;;5043271;28;20212;-73
2024/01/12 10:58:48;;;;;;;25.17;15.27;;;-3.00;99.90;;;;;;5047554;28;20204;-72
2024/01/12 11:01:15;;;;;;;18.10;13.15;;;-2.90;99.80;;;;;;5051915;28;20208;-73
2024/01/12 11:03:44;;;;;;;28.90;18.33;;;-2.70;99.70;;;;;;5050360;28;20772;-74
2024/01/12 11:06:16;;;;;;;25.88;15.55;;;-2.60;99.50;;;;;;5040419;28;20209;-75
2024/01/12 11:08:48;;;;;;;36.40;18.25;;;-2.50;99.20;;;;;;5038742;28;21327;-73
2024/01/12 11:11:19;;;;;;;25.70;16.02;;;-2.50;99.10;;;;;;5039574;28;20577;-74
2024/01/12 11:13:47;;;;;;;24.65;16.15;;;-2.50;99.20;;;;;;5038320;28;20200;-74
2024/01/12 11:16:13;;;;;;;27.05;16.42;;;-2.60;98.80;;;;;;5037450;27;20300;-74
2024/01/12 11:18:40;;;;;;;29.50;17.27;;;-2.50;98.80;;;;;;5041814;28;20212;-74
2024/01/12 11:21:07;;;;;;;24.50;16.15;;;-2.50;98.80;;;;;;5037894;28;20208;-74
2024/01/12 11:23:40;;;;;;;32.33;19.23;;;-2.60;98.60;;;;;;5059283;28;20228;-74
2024/01/12 11:26:09;;;;;;;35.28;18.35;;;-2.60;98.80;;;;;;5035249;28;20200;-74
2024/01/12 11:28:37;;;;;;;41.50;17.88;;;-2.40;98.70;;;;;;5056993;28;20199;-75
2024/01/12 11:31:05;;;;;;;26.38;18.63;;;-2.40;98.40;;;;;;5061655;28;20212;-76
2024/01/12 11:33:38;;;;;;;30.55;20.55;;;-2.50;98.20;;;;;;5048292;28;20204;-74
2024/01/12 11:36:09;;;;;;;18.23;13.88;;;-2.40;98.60;;;;;;5054074;28;20716;-74
2024/01/12 11:38:40;;;;;;;26.60;14.13;;;-2.20;98.30;;;;;;5059799;28;20229;-74
2024/01/12 11:41:12;;;;;;;27.52;17.08;;;-2.20;98.30;;;;;;5047413;28;20226;-75
2024/01/12 11:43:39;;;;;;;26.35;15.30;;;-2.10;98.10;;;;;;5037945;28;20225;-76
2024/01/12 11:46:06;;;;;;;29.88;16.55;;;-2.00;97.80;;;;;;5065932;27;20203;-76
2024/01/12 11:48:33;;;;;;;23.23;17.30;;;-1.90;97.60;;;;;;5051406;28;20214;-76
2024/01/12 11:51:00;;;;;;;29.80;14.90;;;-1.90;97.70;;;;;;5063590;27;20201;-76
2024/01/12 11:53:27;;;;;;;22.05;16.13;;;-1.80;97.70;;;;;;5048036;28;20721;-75
2024/01/12 11:55:54;;;;;;;22.48;16.65;;;-1.80;97.10;;;;;;5046561;28;20208;-76
2024/01/12 11:58:22;;;;;;;27.40;16.20;;;-1.90;97.10;;;;;;5051966;27;20204;-76
2024/01/12 12:00:50;;;;;;;30.65;19.80;;;-2.00;97.30;;;;;;5052768;27;20287;-76
2024/01/12 12:03:17;;;;;;;29.38;16.70;;;-2.10;97.00;;;;;;5051414;28;20216;-76
2024/01/12 12:05:43;;;;;;;26.00;17.73;;;-2.10;97.20;;;;;;5052139;28;20203;-76
2024/01/12 12:08:10;;;;;;;25.08;15.10;;;-1.90;97.40;;;;;;5042650;28;20287;-76
2024/01/12 12:10:37;;;;;;;20.90;13.63;;;-1.80;97.40;;;;;;5049943;28;20215;-76
2024/01/12 12:13:04;;;;;;;24.42;15.55;;;-1.70;97.00;;;;;;5047714;28;20284;-76
2024/01/12 12:15:32;;;;;;;28.00;14.68;;;-1.70;97.10;;;;;;5038322;28;20656;-76
2024/01/12 12:17:59;;;;;;;22.13;15.45;;;-1.70;97.00;;;;;;5042995;28;20208;-76
2024/01/12 12:20:26;;;;;;;30.88;17.08;;;-1.70;96.80;;;;;;5066528;28;20238;-76
2024/01/12 12:22:53;;;;;;;29.63;18.38;;;-1.60;96.60;;;;;;5061885;28;20221;-76
2024/01/12 12:25:20;;;;;;;22.30;13.82;;;-1.70;96.60;;;;;;5042579;28;20221;-76
2024/01/12 12:27:47;;;;;;;24.30;18.50;;;-1.70;96.70;;;;;;5045424;27;20733;-75
2024/01/12 12:30:15;;;;;;;29.00;18.23;;;-1.70;96.90;;;;;;5054253;28;20207;-75
2024/01/12 12:32:45;;;;;;;28.42;17.15;;;-1.70;96.80;;;;;;5043027;28;20288;-75